Chicago (ORD/KORD)

Information

Location
Chicago-O'Hare, IL
Local Time
00:06 / 12:06 am
GMT Time
06:06 / 6:06 am
No FAA reported delays
METAR KORD 140551Z 34016G24KT 10SM -SN FEW020 BKN027 OVC031 M02/M07 A2978 RMK AO2 SLP093 P0000 60000 T10221067 11006 21022 400331056 51052 $
TAF KORD 140306Z 1403/1506 35015G25KT P6SM -SN SCT015 OVC020 TEMPO 1405/1407 02012G18KT 1 1/2SM -SN BKN015 FM140900 33011KT P6SM SCT025 SCT250 FM142000 29008KT P6SM SCT250 FM150000 24007KT P6SM BKN060